Time;durP1;ratioP1;P1;durP2;ratioP2;P2;SDS_P1;SDS_P2;PMS_P1;PMS_P2;Temp;Humidity;BMP_temperature;BMP_pressure;BME280_temperature;BME280_humidity;BME280_pressure;Samples;Min_cycle;Max_cycle;Signal;HPM_P1;HPM_P2
2024/01/23 00:06:35;;;;;;;57.38;37.40;;;;;;;21.19;48.61;100434.19;31281147;28;20516;-66
2024/01/23 00:21:38;;;;;;;51.13;33.25;;;;;;;21.13;48.65;100461.88;31277418;28;20224;-66
2024/01/23 00:36:42;;;;;;;45.10;30.05;;;;;;;21.07;49.09;100477.41;31272675;28;20263;-65
2024/01/23 00:51:45;;;;;;;35.95;24.85;;;;;;;21.01;48.92;100535.41;31271366;28;20530;-56
2024/01/23 01:06:48;;;;;;;34.72;22.77;;;;;;;20.97;49.04;100554.25;31271937;28;20228;-67
2024/01/23 01:21:51;;;;;;;34.75;21.88;;;;;;;20.92;49.23;100582.72;31270231;28;20231;-62
2024/01/23 01:36:54;;;;;;;29.27;19.38;;;;;;;20.90;49.04;100631.16;31263917;28;20236;-66
2024/01/23 01:51:58;;;;;;;25.63;17.58;;;;;;;20.87;49.33;100631.06;31265567;28;20220;-63
2024/01/23 02:07:01;;;;;;;22.95;15.80;;;;;;;20.85;49.19;100650.38;31290494;28;20639;-61
2024/01/23 02:22:04;;;;;;;20.52;13.30;;;;;;;20.86;49.27;100691.63;31292100;28;20248;-63
2024/01/23 02:37:07;;;;;;;20.83;13.48;;;;;;;20.82;49.51;100696.31;31289627;28;20236;-62
2024/01/23 02:52:10;;;;;;;17.73;11.90;;;;;;;20.79;49.26;100725.28;31288033;28;20220;-57
2024/01/23 03:07:13;;;;;;;19.27;11.70;;;;;;;20.75;49.71;100761.09;31288996;28;20224;-58
2024/01/23 03:22:16;;;;;;;17.42;10.75;;;;;;;20.76;49.52;100785.38;31284447;28;20219;-63
2024/01/23 03:37:20;;;;;;;13.45;8.82;;;;;;;21.24;48.60;100796.28;31290609;28;20650;-60
2024/01/23 03:52:23;;;;;;;11.48;8.15;;;;;;;21.68;47.19;100825.97;31277891;28;20223;-55
2024/01/23 04:07:28;;;;;;;11.35;7.90;;;;;;;21.84;46.76;100858.16;31271757;28;20228;-64
2024/01/23 04:22:33;;;;;;;9.43;5.90;;;;;;;21.89;46.80;100879.81;31272525;28;20293;-62
2024/01/23 04:37:36;;;;;;;10.88;6.50;;;;;;;21.92;46.49;100908.28;31275493;28;20229;-62
2024/01/23 04:52:40;;;;;;;68.75;43.10;;;;;;;22.02;46.58;100938.25;31275240;28;20223;-57
2024/01/23 05:07:43;;;;;;;82.32;53.72;;;;;;;22.34;46.01;100953.66;31275899;28;20224;-65
2024/01/23 05:22:46;;;;;;;133.68;89.40;;;;;;;22.58;45.41;100996.34;31254081;28;20311;-57
2024/01/23 05:37:49;;;;;;;117.35;78.38;;;;;;;22.59;45.48;101025.56;31266210;28;20236;-62
2024/01/23 05:52:53;;;;;;;109.40;71.25;;;;;;;22.73;47.53;101060.13;31267593;28;20220;-55
2024/01/23 06:07:56;;;;;;;94.38;60.65;;;;;;;22.84;47.81;101108.84;31253850;28;20228;-64
2024/01/23 06:22:59;;;;;;;75.30;52.25;;;;;;;22.76;47.35;101136.09;31259873;28;20220;-63
2024/01/23 06:38:02;;;;;;;66.80;45.95;;;;;;;22.63;46.77;101177.72;31257929;28;20228;-64
2024/01/23 06:53:05;;;;;;;57.17;38.15;;;;;;;22.47;46.85;101205.00;31262128;28;20224;-56
2024/01/23 07:08:08;;;;;;;48.38;33.50;;;;;;;22.29;47.40;101218.44;31279575;28;20224;-63
2024/01/23 07:23:12;;;;;;;43.22;28.77;;;;;;;22.13;47.54;101242.00;31277020;28;20231;-61
2024/01/23 07:38:15;;;;;;;41.60;27.35;;;;;;;21.98;47.93;101269.69;31274621;28;20239;-64
2024/01/23 07:53:18;;;;;;;34.40;24.20;;;;;;;21.84;48.08;101288.88;31267528;28;20230;-63
2024/01/23 08:08:23;;;;;;;29.83;21.40;;;;;;;21.73;48.39;101341.38;31267347;28;20225;-56
2024/01/23 08:23:26;;;;;;;29.90;20.38;;;;;;;21.63;48.47;101353.03;31265319;28;20274;-61
2024/01/23 08:38:29;;;;;;;26.15;17.80;;;;;;;21.53;48.26;101376.88;31270304;28;20636;-53
2024/01/23 08:53:33;;;;;;;23.33;15.40;;;;;;;21.46;48.69;101370.00;31273702;28;20239;-64
2024/01/23 09:08:36;;;;;;;20.38;14.13;;;;;;;21.38;48.49;101368.84;31282654;28;20227;-54
2024/01/23 09:23:39;;;;;;;18.70;12.43;;;;;;;21.30;48.64;101400.78;31299648;28;20216;-63
2024/01/23 09:38:43;;;;;;;17.15;11.45;;;;;;;21.23;48.81;101406.94;31295444;28;20263;-59
2024/01/23 09:53:46;;;;;;;14.18;10.32;;;;;;;21.17;48.66;101415.84;31303931;28;20216;-64
2024/01/23 10:08:49;;;;;;;14.02;9.18;;;;;;;21.11;48.69;101426.50;31307336;28;20227;-57
2024/01/23 10:23:52;;;;;;;15.60;9.73;;;;;;;21.07;48.53;101456.63;31291850;28;20212;-62
2024/01/23 10:38:55;;;;;;;11.15;7.10;;;;;;;21.02;48.92;101448.28;31344924;28;20232;-63
2024/01/23 10:54:04;;;;;;;11.45;7.80;;;;;;;20.99;48.83;101440.44;31291539;28;20526;-65
2024/01/23 11:09:10;;;;;;;10.68;6.68;;;;;;;20.99;48.84;101423.44;31314122;28;20230;-61
2024/01/23 11:24:13;;;;;;;9.32;6.38;;;;;;;21.00;48.51;101413.81;31318716;28;20228;-58
2024/01/23 11:39:16;;;;;;;8.52;5.30;;;;;;;21.04;48.44;101415.63;31254388;28;20224;-60
2024/01/23 11:54:19;;;;;;;8.07;5.22;;;;;;;21.02;48.63;101422.81;31183039;28;20233;-60
2024/01/23 12:09:23;;;;;;;9.18;5.65;;;;;;;21.08;48.57;101418.66;31324807;28;20246;-61
2024/01/23 12:24:26;;;;;;;7.72;4.53;;;;;;;21.08;48.67;101369.69;31298647;28;20247;-63
2024/01/23 12:39:29;;;;;;;6.85;4.57;;;;;;;21.05;48.20;101382.50;31342764;28;20230;-60
2024/01/23 12:54:32;;;;;;;5.85;3.83;;;;;;;21.02;48.62;101360.53;31419637;28;20249;-61
2024/01/23 13:09:36;;;;;;;6.80;3.65;;;;;;;21.01;48.31;101361.72;31362632;28;20228;-62
2024/01/23 13:24:39;;;;;;;6.13;3.35;;;;;;;20.90;48.62;101341.34;31308082;28;20332;-65
2024/01/23 13:39:42;;;;;;;4.97;3.15;;;;;;;20.82;48.64;101327.16;31324300;28;20227;-62
2024/01/23 13:54:45;;;;;;;5.25;2.65;;;;;;;20.76;48.81;101323.66;31370994;28;20313;-66
2024/01/23 14:09:48;;;;;;;4.88;3.00;;;;;;;20.73;48.69;101329.13;31363438;28;20599;-60
2024/01/23 14:24:52;;;;;;;5.18;2.40;;;;;;;21.19;48.04;101298.34;31404094;28;20199;-62
2024/01/23 14:39:55;;;;;;;3.80;2.15;;;;;;;21.54;46.92;101287.06;31445127;28;20500;-64
2024/01/23 14:54:58;;;;;;;2.95;2.25;;;;;;;21.67;46.33;101280.41;31388681;28;20622;-56
2024/01/23 15:10:01;;;;;;;4.30;2.28;;;;;;;21.79;46.37;101254.22;31374857;28;20285;-63
2024/01/23 15:25:05;;;;;;;6.22;1.73;;;;;;;21.78;46.12;101236.38;31398904;28;20246;-63
2024/01/23 15:40:08;;;;;;;4.07;1.80;;;;;;;21.84;45.82;101229.34;31428143;28;20677;-56
2024/01/23 15:55:11;;;;;;;3.05;1.88;;;;;;;21.87;45.68;101180.50;31406084;28;20228;-59
2024/01/23 16:10:14;;;;;;;2.83;1.17;;;;;;;21.84;45.57;101154.84;31342327;28;20630;-62
2024/01/23 16:25:17;;;;;;;2.83;1.30;;;;;;;21.85;45.57;101139.50;31303055;28;20231;-59
2024/01/23 16:40:20;;;;;;;2.40;1.50;;;;;;;21.86;45.71;101101.50;31380949;28;20242;-59
2024/01/23 16:55:24;;;;;;;28.50;13.65;;;;;;;21.92;46.19;101084.00;31315153;28;20262;-66
2024/01/23 17:10:27;;;;;;;82.28;53.38;;;;;;;22.12;46.68;101041.88;31236716;28;20215;-62
2024/01/23 17:25:30;;;;;;;69.65;44.13;;;;;;;22.20;46.68;100995.66;31399147;28;20502;-65
2024/01/23 17:40:33;;;;;;;152.30;91.32;;;;;;;22.21;46.53;100968.94;31329204;28;20239;-59
2024/01/23 17:55:37;;;;;;;135.32;81.40;;;;;;;22.21;46.33;100920.75;31322074;28;20654;-61
2024/01/23 18:10:40;;;;;;;107.47;64.90;;;;;;;22.21;46.88;100898.06;31308150;28;20238;-53
2024/01/23 18:25:43;;;;;;;186.48;116.75;;;;;;;22.22;46.43;100835.34;31159502;28;20608;-61
2024/01/23 18:40:46;;;;;;;259.50;164.15;;;;;;;22.24;46.61;100835.00;31294334;28;20330;-58
2024/01/23 18:55:49;;;;;;;248.02;157.20;;;;;;;22.28;46.28;100797.09;31307324;28;20302;-54
2024/01/23 19:10:52;;;;;;;214.70;151.03;;;;;;;22.42;46.40;100779.78;31293837;28;20745;-56
2024/01/23 19:25:55;;;;;;;263.00;168.00;;;;;;;22.50;46.35;100736.28;31271543;28;20216;-55
2024/01/23 19:40:59;;;;;;;213.25;133.00;;;;;;;22.47;46.25;100736.97;31319153;28;20228;-54
2024/01/23 19:56:02;;;;;;;268.42;177.90;;;;;;;22.48;46.44;100676.25;31324838;28;20238;-61
2024/01/23 20:11:05;;;;;;;238.27;154.52;;;;;;;22.43;46.82;100671.66;31248831;28;20216;-67
2024/01/23 20:26:08;;;;;;;244.43;166.43;;;;;;;22.64;46.44;100663.00;31228867;28;20200;-59
2024/01/23 20:41:11;;;;;;;307.92;218.98;;;;;;;22.59;46.83;100642.59;31236305;28;20224;-56
2024/01/23 20:56:14;;;;;;;242.95;165.80;;;;;;;22.60;46.98;100630.84;31233892;28;20216;-65
2024/01/23 21:11:17;;;;;;;333.40;235.13;;;;;;;22.48;47.23;100584.66;31211571;28;20525;-62
2024/01/23 21:26:20;;;;;;;270.50;177.15;;;;;;;22.30;47.21;100587.75;31127398;28;20189;-62
2024/01/23 21:41:23;;;;;;;213.73;138.07;;;;;;;22.19;47.01;100532.72;31155459;28;20228;-66
2024/01/23 21:56:26;;;;;;;167.35;110.38;;;;;;;22.05;47.17;100526.59;31152048;28;20225;-55
2024/01/23 22:11:29;;;;;;;138.95;92.05;;;;;;;21.90;47.74;100521.59;31136918;28;20237;-59
2024/01/23 22:26:32;;;;;;;115.68;78.57;;;;;;;21.79;47.90;100484.41;31155410;28;20205;-63
2024/01/23 22:41:35;;;;;;;97.63;66.13;;;;;;;21.70;48.09;100469.50;31147861;28;20256;-57
2024/01/23 22:56:38;;;;;;;80.88;56.22;;;;;;;21.61;48.15;100429.16;31182819;28;20238;-66
2024/01/23 23:11:41;;;;;;;73.20;52.40;;;;;;;21.54;48.49;100409.94;31191424;28;20364;-55
2024/01/23 23:26:44;;;;;;;60.58;44.00;;;;;;;21.47;48.56;100392.69;31155051;28;20202;-57
2024/01/23 23:41:47;;;;;;;51.83;37.00;;;;;;;21.42;49.22;100360.97;31259400;28;20324;-63
2024/01/23 23:56:54;;;;;;;46.67;33.10;;;;;;;21.35;49.29;100373.72;31264705;28;20216;-55
